createdAt,value
2018-10-17T00:02:24.913Z,36.00
2018-10-17T00:04:53.795Z,38.42
2018-10-17T00:07:22.706Z,38.67
2018-10-17T00:09:51.533Z,39.25
2018-10-17T00:12:20.574Z,37.73
2018-10-17T00:14:49.371Z,35.78
2018-10-17T00:17:18.301Z,37.15
2018-10-17T00:19:47.175Z,37.67
2018-10-17T00:22:16.888Z,37.85
2018-10-17T00:24:45.790Z,35.60
2018-10-17T00:27:14.840Z,35.77
2018-10-17T00:29:44.014Z,35.98
2018-10-17T00:32:12.842Z,36.63
2018-10-17T00:34:41.662Z,37.58
2018-10-17T00:37:10.497Z,36.03
2018-10-17T00:39:39.238Z,35.63
2018-10-17T00:42:08.059Z,34.92
2018-10-17T00:44:36.919Z,35.70
2018-10-17T00:47:06.647Z,35.78
2018-10-17T00:49:35.410Z,35.60
2018-10-17T00:52:04.432Z,35.70
2018-10-17T00:54:33.322Z,36.23
2018-10-17T00:57:02.115Z,36.55
2018-10-17T00:59:31.046Z,37.73
2018-10-17T01:02:00.019Z,35.08
2018-10-17T01:04:28.842Z,35.03
2018-10-17T01:06:57.802Z,35.93
2018-10-17T01:09:26.647Z,35.13
2018-10-17T01:11:55.546Z,35.00
2018-10-17T01:14:24.383Z,34.92
2018-10-17T01:16:53.240Z,35.05
2018-10-17T01:19:21.939Z,35.15
2018-10-17T01:21:50.805Z,35.08
2018-10-17T01:24:19.657Z,34.63
2018-10-17T01:26:48.443Z,33.92
2018-10-17T01:29:17.404Z,34.20
2018-10-17T01:31:46.417Z,34.40
2018-10-17T01:34:15.280Z,35.20
2018-10-17T01:36:44.008Z,34.38
2018-10-17T01:39:12.930Z,33.83
2018-10-17T01:41:41.713Z,34.67
2018-10-17T01:44:10.508Z,34.30
2018-10-17T01:46:39.298Z,36.08
2018-10-17T01:49:08.078Z,35.30
2018-10-17T01:51:38.517Z,35.70
2018-10-17T01:54:07.424Z,33.70
2018-10-17T01:56:36.250Z,34.35
2018-10-17T01:59:05.726Z,34.18
2018-10-17T02:01:34.450Z,34.10
2018-10-17T02:04:03.257Z,30.02
2018-10-17T02:06:32.012Z,30.75
2018-10-17T02:09:00.823Z,31.68
2018-10-17T02:11:29.596Z,30.60
2018-10-17T02:13:58.419Z,28.42
2018-10-17T02:16:27.212Z,30.17
2018-10-17T02:18:56.041Z,29.32
2018-10-17T02:21:24.853Z,30.10
2018-10-17T02:23:53.680Z,28.27
2018-10-17T02:26:22.482Z,29.70
2018-10-17T02:28:51.347Z,28.73
2018-10-17T02:31:20.266Z,26.87
2018-10-17T02:33:49.229Z,29.52
2018-10-17T02:36:18.020Z,29.60
2018-10-17T02:38:46.835Z,28.05
2018-10-17T02:41:15.706Z,25.95
2018-10-17T02:43:44.495Z,28.07
2018-10-17T02:46:13.572Z,25.92
2018-10-17T02:48:42.518Z,27.98
2018-10-17T02:51:12.203Z,26.57
2018-10-17T02:53:41.052Z,26.30
2018-10-17T02:56:09.824Z,25.88
2018-10-17T02:58:38.617Z,25.90
2018-10-17T03:01:07.404Z,27.65
2018-10-17T03:03:36.142Z,26.52
2018-10-17T03:06:05.030Z,26.62
2018-10-17T03:08:33.844Z,25.45
2018-10-17T03:11:02.742Z,25.60
2018-10-17T03:13:31.482Z,26.37
2018-10-17T03:16:00.266Z,25.35
2018-10-17T03:18:29.126Z,26.15
2018-10-17T03:20:58.249Z,26.35
2018-10-17T03:23:28.012Z,25.02
2018-10-17T03:25:56.806Z,24.70
2018-10-17T03:28:25.575Z,26.17
2018-10-17T03:30:54.439Z,24.55
2018-10-17T03:33:23.151Z,25.12
2018-10-17T03:35:52.058Z,25.65
2018-10-17T03:38:20.962Z,26.65
2018-10-17T03:40:49.780Z,27.40
2018-10-17T03:43:18.669Z,25.82
2018-10-17T03:45:47.378Z,27.52
2018-10-17T03:48:16.373Z,26.52
2018-10-17T03:50:45.158Z,27.52
2018-10-17T03:53:13.978Z,29.37
2018-10-17T03:55:42.768Z,28.52
2018-10-17T03:58:11.651Z,27.58
2018-10-17T04:00:40.417Z,25.17
2018-10-17T04:03:09.284Z,29.02
2018-10-17T04:05:37.983Z,26.33
2018-10-17T04:08:07.220Z,29.52
2018-10-17T04:10:36.009Z,26.52
2018-10-17T04:13:04.948Z,27.58
2018-10-17T04:15:33.655Z,26.85
2018-10-17T04:18:02.573Z,27.90
2018-10-17T04:20:31.414Z,26.73
2018-10-17T04:23:00.258Z,26.23
2018-10-17T04:25:29.022Z,25.75
2018-10-17T04:27:57.845Z,27.60
2018-10-17T04:30:26.796Z,25.75
2018-10-17T04:32:55.689Z,26.48
2018-10-17T04:35:24.503Z,25.25
2018-10-17T04:37:53.266Z,24.67
2018-10-17T04:40:22.113Z,26.23
2018-10-17T04:42:50.978Z,26.23
2018-10-17T04:45:19.728Z,25.97
2018-10-17T04:47:48.563Z,26.85
2018-10-17T04:50:17.328Z,24.27
2018-10-17T04:52:46.143Z,23.40
2018-10-17T04:55:15.174Z,24.32
2018-10-17T04:57:43.932Z,25.02
2018-10-17T05:00:13.330Z,23.67
2018-10-17T05:02:43.315Z,24.75
2018-10-17T05:05:12.860Z,24.40
2018-10-17T05:07:42.290Z,24.43
2018-10-17T05:10:11.191Z,23.65
2018-10-17T05:12:40.282Z,23.73
2018-10-17T05:15:09.350Z,23.62
2018-10-17T05:17:38.257Z,24.25
2018-10-17T05:20:07.509Z,24.35
2018-10-17T05:22:36.320Z,23.57
2018-10-17T05:25:06.358Z,24.80
2018-10-17T05:27:35.295Z,23.83
2018-10-17T05:30:04.452Z,23.95
2018-10-17T05:32:33.281Z,24.52
2018-10-17T05:35:02.225Z,23.85
2018-10-17T05:37:31.064Z,23.55
2018-10-17T05:39:59.948Z,23.05
2018-10-17T05:42:28.845Z,23.87
2018-10-17T05:44:57.664Z,24.45
2018-10-17T05:47:26.448Z,24.32
2018-10-17T05:49:55.515Z,24.40
2018-10-17T05:52:24.323Z,24.10
2018-10-17T05:54:53.395Z,23.95
2018-10-17T05:57:22.323Z,25.57
2018-10-17T05:59:51.284Z,23.52
2018-10-17T06:02:23.798Z,24.95
2018-10-17T06:04:53.031Z,24.92
2018-10-17T06:07:21.875Z,24.90
2018-10-17T06:09:50.716Z,25.35
2018-10-17T06:12:19.501Z,24.77
2018-10-17T06:14:48.318Z,21.25
2018-10-17T06:17:17.144Z,23.40
2018-10-17T06:19:45.887Z,25.37
2018-10-17T06:22:14.804Z,25.17
2018-10-17T06:24:43.682Z,24.05
2018-10-17T06:27:12.751Z,23.90
2018-10-17T06:29:41.647Z,24.10
2018-10-17T06:32:10.501Z,23.52
2018-10-17T06:34:39.521Z,24.18
2018-10-17T06:37:08.544Z,23.20
2018-10-17T06:39:37.391Z,24.18
2018-10-17T06:42:06.782Z,21.40
2018-10-17T06:44:36.300Z,24.05
2018-10-17T06:47:05.247Z,23.83
2018-10-17T06:49:33.969Z,22.70
2018-10-17T06:52:02.984Z,24.90
2018-10-17T06:54:31.802Z,23.05
2018-10-17T06:57:00.536Z,24.45
2018-10-17T06:59:29.390Z,26.05
2018-10-17T07:01:58.691Z,25.12
2018-10-17T07:04:27.383Z,25.50
2018-10-17T07:06:56.264Z,24.92
2018-10-17T07:09:25.067Z,24.10
2018-10-17T07:11:53.955Z,24.27
2018-10-17T07:14:22.770Z,23.00
2018-10-17T07:16:51.557Z,24.00
2018-10-17T07:19:20.327Z,23.90
2018-10-17T07:21:50.743Z,23.12
2018-10-17T07:24:19.544Z,24.57
2018-10-17T07:26:48.366Z,21.55
2018-10-17T07:29:17.186Z,22.98
2018-10-17T07:31:45.976Z,22.02
2018-10-17T07:34:14.893Z,24.10
2018-10-17T07:36:43.789Z,25.57
2018-10-17T07:39:12.578Z,22.97
2018-10-17T07:41:41.395Z,24.07
2018-10-17T07:44:11.128Z,24.47
2018-10-17T07:46:40.072Z,24.27
2018-10-17T07:49:09.010Z,23.60
2018-10-17T07:51:38.277Z,22.35
2018-10-17T07:54:07.533Z,22.42
2018-10-17T07:56:36.558Z,22.60
2018-10-17T07:59:05.712Z,21.40
2018-10-17T08:01:34.554Z,19.87
2018-10-17T08:04:03.509Z,21.33
2018-10-17T08:06:32.305Z,20.90
2018-10-17T08:09:01.106Z,22.05
2018-10-17T08:11:29.967Z,21.52
2018-10-17T08:13:58.933Z,20.97
2018-10-17T08:16:27.656Z,20.88
2018-10-17T08:18:56.420Z,20.48
2018-10-17T08:21:25.316Z,20.17
2018-10-17T08:23:54.267Z,21.07
2018-10-17T08:26:23.134Z,20.65
2018-10-17T08:28:52.042Z,20.88
2018-10-17T08:31:20.838Z,20.12
2018-10-17T08:33:49.629Z,19.27
2018-10-17T08:36:18.599Z,20.15
2018-10-17T08:38:47.363Z,20.60
2018-10-17T08:41:16.199Z,20.88
2018-10-17T08:43:45.274Z,21.07
2018-10-17T08:46:14.664Z,20.17
2018-10-17T08:48:43.739Z,20.17
2018-10-17T08:51:12.554Z,22.37
2018-10-17T08:53:41.459Z,21.77
2018-10-17T08:56:10.386Z,23.00
2018-10-17T08:58:39.150Z,22.45
2018-10-17T09:01:07.904Z,21.33
2018-10-17T09:03:36.719Z,21.55
2018-10-17T09:06:05.594Z,22.67
2018-10-17T09:08:34.377Z,21.42
2018-10-17T09:11:03.268Z,20.62
2018-10-17T09:13:32.150Z,23.80
2018-10-17T09:16:00.907Z,19.30
2018-10-17T09:18:29.705Z,22.05
2018-10-17T09:20:58.880Z,22.52
2018-10-17T09:23:27.347Z,21.23
2018-10-17T09:25:56.376Z,25.52
2018-10-17T09:28:25.265Z,21.80
2018-10-17T09:30:54.100Z,20.37
2018-10-17T09:33:23.093Z,26.20
2018-10-17T09:35:52.367Z,22.15
2018-10-17T09:38:21.386Z,18.98
2018-10-17T09:40:50.177Z,23.80
2018-10-17T09:43:18.968Z,25.05
2018-10-17T09:45:47.784Z,24.55
2018-10-17T09:48:16.692Z,18.30
2018-10-17T09:50:45.904Z,18.37
2018-10-17T09:53:14.928Z,19.12
2018-10-17T09:55:43.675Z,18.65
2018-10-17T09:58:12.600Z,17.38
2018-10-17T10:00:46.684Z,24.32
2018-10-17T10:03:15.617Z,20.68
2018-10-17T10:05:44.495Z,24.55
2018-10-17T10:08:13.371Z,18.15
2018-10-17T10:10:42.195Z,19.12
2018-10-17T10:13:11.064Z,18.65
2018-10-17T10:15:39.843Z,17.52
2018-10-17T10:18:08.771Z,18.02
2018-10-17T10:20:37.611Z,27.93
2018-10-17T10:23:06.701Z,20.97
2018-10-17T10:25:35.497Z,21.25
2018-10-17T10:28:04.597Z,16.80
2018-10-17T10:30:33.368Z,18.98
2018-10-17T10:33:02.146Z,19.27
2018-10-17T10:35:31.403Z,21.05
2018-10-17T10:38:00.381Z,19.62
2018-10-17T10:40:29.484Z,16.30
2018-10-17T10:42:58.463Z,20.82
2018-10-17T10:45:27.416Z,18.95
2018-10-17T10:47:56.239Z,18.77
2018-10-17T10:50:25.210Z,19.40
2018-10-17T10:52:54.034Z,20.05
2018-10-17T10:55:22.963Z,20.85
2018-10-17T10:57:51.824Z,15.65
2018-10-17T11:00:20.901Z,14.60
2018-10-17T11:02:49.721Z,16.87
2018-10-17T11:05:18.677Z,13.80
2018-10-17T11:07:47.434Z,14.83
2018-10-17T11:10:16.310Z,15.03
2018-10-17T11:12:45.110Z,12.58
2018-10-17T11:15:14.004Z,13.25
2018-10-17T11:17:42.849Z,12.45
2018-10-17T11:20:11.803Z,13.48
2018-10-17T11:25:15.631Z,16.75
2018-10-17T11:27:44.667Z,15.25
2018-10-17T11:30:13.445Z,14.33
2018-10-17T11:32:43.187Z,16.48
2018-10-17T11:35:12.691Z,15.03
2018-10-17T11:37:41.438Z,18.17
2018-10-17T11:40:10.315Z,13.20
2018-10-17T11:42:39.020Z,13.08
2018-10-17T11:45:08.334Z,14.03
2018-10-17T11:47:37.078Z,14.23
2018-10-17T11:50:07.541Z,13.30
2018-10-17T11:52:36.536Z,10.28
2018-10-17T11:55:05.399Z,12.40
2018-10-17T11:57:34.394Z,13.53
2018-10-17T12:00:03.475Z,11.88
2018-10-17T12:02:32.404Z,13.53
2018-10-17T12:05:01.406Z,11.65
2018-10-17T12:07:30.142Z,11.95
2018-10-17T12:09:58.968Z,12.18
2018-10-17T12:12:27.842Z,11.57
2018-10-17T12:14:56.591Z,13.38
2018-10-17T12:17:25.370Z,11.63
2018-10-17T12:19:54.319Z,9.75
2018-10-17T12:22:23.131Z,10.60
2018-10-17T12:24:52.413Z,11.68
2018-10-17T12:27:21.291Z,10.87
2018-10-17T12:29:50.095Z,9.95
2018-10-17T12:32:18.915Z,9.13
2018-10-17T12:34:47.851Z,10.98
2018-10-17T12:37:16.695Z,9.13
2018-10-17T12:39:45.508Z,9.08
2018-10-17T12:42:14.567Z,10.63
2018-10-17T12:44:43.373Z,11.28
2018-10-17T12:47:12.319Z,10.05
2018-10-17T12:49:41.166Z,10.38
2018-10-17T12:52:10.503Z,11.35
2018-10-17T12:54:39.174Z,9.55
2018-10-17T12:57:08.575Z,9.80
2018-10-17T12:59:37.771Z,10.13
2018-10-17T13:02:06.667Z,10.30
2018-10-17T13:04:35.697Z,9.18
2018-10-17T13:07:04.812Z,9.55
2018-10-17T13:09:33.596Z,10.30
2018-10-17T13:12:02.796Z,8.80
2018-10-17T13:14:31.629Z,10.75
2018-10-17T13:17:00.445Z,9.75
2018-10-17T13:19:29.215Z,9.58
2018-10-17T13:21:58.103Z,7.67
2018-10-17T13:24:27.176Z,7.80
2018-10-17T13:26:56.020Z,8.33
2018-10-17T13:29:25.015Z,9.18
2018-10-17T13:31:54.322Z,9.55
2018-10-17T13:34:23.231Z,9.03
2018-10-17T13:36:52.726Z,8.85
2018-10-17T13:39:23.038Z,9.97
2018-10-17T13:41:51.824Z,8.20
2018-10-17T13:44:21.147Z,7.72
2018-10-17T13:46:50.044Z,8.03
2018-10-17T13:49:18.985Z,9.15
2018-10-17T13:51:48.070Z,9.05
2018-10-17T13:54:16.880Z,9.48
2018-10-17T13:56:52.368Z,8.93
2018-10-17T13:59:21.596Z,9.90
2018-10-17T14:01:50.182Z,10.23
2018-10-17T14:04:19.014Z,8.98
2018-10-17T14:06:47.795Z,8.53
2018-10-17T14:09:16.688Z,9.00
2018-10-17T14:11:45.440Z,7.62
2018-10-17T14:14:14.269Z,8.13
2018-10-17T14:16:43.342Z,7.95
2018-10-17T14:19:12.305Z,8.28
2018-10-17T14:21:41.095Z,9.75
2018-10-17T14:24:10.028Z,8.90
2018-10-17T14:26:38.775Z,7.17
2018-10-17T14:29:08.071Z,8.85
2018-10-17T14:31:36.894Z,8.50
2018-10-17T14:34:05.962Z,8.40
2018-10-17T14:36:34.836Z,6.62
2018-10-17T14:39:05.180Z,7.33
2018-10-17T14:41:33.957Z,7.42
2018-10-17T14:44:02.818Z,7.50
2018-10-17T14:46:31.593Z,7.75
2018-10-17T14:49:00.454Z,7.22
2018-10-17T14:51:29.310Z,7.00
2018-10-17T14:53:58.185Z,7.90
2018-10-17T14:56:27.222Z,8.83
2018-10-17T14:58:56.024Z,9.13
2018-10-17T15:01:24.827Z,9.70
2018-10-17T15:03:53.953Z,6.53
2018-10-17T15:06:22.757Z,7.60
2018-10-17T15:08:51.649Z,8.95
2018-10-17T15:11:20.679Z,11.43
2018-10-17T15:13:49.375Z,9.97
2018-10-17T15:16:18.132Z,14.40
2018-10-17T15:18:47.033Z,12.75
2018-10-17T15:21:15.927Z,10.00
2018-10-17T15:23:44.849Z,12.28
2018-10-17T15:26:13.659Z,7.37
2018-10-17T15:28:42.748Z,12.70
2018-10-17T15:31:11.750Z,11.90
2018-10-17T15:33:40.515Z,12.80
2018-10-17T15:36:09.530Z,15.72
2018-10-17T15:38:38.373Z,12.35
2018-10-17T15:41:07.242Z,11.75
2018-10-17T15:43:36.451Z,12.35
2018-10-17T15:46:05.262Z,9.38
2018-10-17T15:48:34.166Z,12.00
2018-10-17T15:51:03.418Z,9.28
2018-10-17T15:53:32.246Z,8.73
2018-10-17T15:56:01.311Z,12.05
2018-10-17T15:58:30.568Z,12.18
2018-10-17T16:00:59.408Z,11.63
2018-10-17T16:03:28.141Z,13.68
2018-10-17T16:05:57.135Z,13.25
2018-10-17T16:08:26.376Z,13.98
2018-10-17T16:10:55.153Z,11.60
2018-10-17T16:13:23.937Z,13.40
2018-10-17T16:15:53.065Z,12.07
2018-10-17T16:18:22.408Z,13.77
2018-10-17T16:20:51.304Z,12.03
2018-10-17T16:23:20.361Z,12.80
2018-10-17T16:28:44.971Z,9.53
2018-10-17T16:31:14.655Z,10.30
2018-10-17T16:33:43.466Z,9.88
2018-10-17T16:36:12.434Z,10.65
2018-10-17T16:38:41.264Z,14.25
2018-10-17T16:41:10.220Z,16.05
2018-10-17T16:43:39.056Z,11.83
2018-10-17T16:46:08.459Z,13.68
2018-10-17T16:48:37.995Z,11.22
2018-10-17T16:51:07.048Z,12.90
2018-10-17T16:53:36.176Z,12.05
2018-10-17T16:56:05.558Z,12.35
2018-10-17T16:58:34.914Z,11.55
2018-10-17T17:01:03.840Z,13.13
2018-10-17T17:03:32.953Z,16.50
2018-10-17T17:06:16.749Z,19.70
2018-10-17T17:08:45.615Z,19.20
2018-10-17T17:11:14.508Z,19.63
2018-10-17T17:13:43.552Z,20.00
2018-10-17T17:16:12.394Z,20.48
2018-10-17T17:18:42.345Z,22.45
2018-10-17T17:21:11.431Z,25.02
2018-10-17T17:23:40.271Z,24.87
2018-10-17T17:26:09.077Z,25.02
2018-10-17T17:28:38.684Z,26.52
2018-10-17T17:31:08.706Z,29.20
2018-10-17T17:33:37.947Z,28.93
2018-10-17T17:36:05.981Z,26.90
2018-10-17T17:38:33.380Z,28.90
2018-10-17T17:41:00.967Z,28.60
2018-10-17T17:43:28.737Z,29.10
2018-10-17T17:45:56.115Z,29.80
2018-10-17T17:48:23.616Z,29.48
2018-10-17T17:50:52.248Z,31.60
2018-10-17T17:53:19.650Z,31.48
2018-10-17T17:55:47.888Z,31.97
2018-10-17T17:58:15.511Z,31.77
2018-10-17T18:00:42.909Z,34.27
2018-10-17T18:03:13.044Z,32.33
2018-10-17T18:05:47.073Z,32.75
2018-10-17T18:08:19.623Z,34.88
2018-10-17T18:10:47.985Z,34.18
2018-10-17T18:13:15.785Z,33.63
2018-10-17T18:15:44.780Z,34.23
2018-10-17T18:18:13.123Z,34.88
2018-10-17T18:20:42.828Z,37.00
2018-10-17T18:23:11.177Z,35.52
2018-10-17T18:25:39.064Z,34.90
2018-10-17T18:28:06.702Z,35.85
2018-10-17T18:30:34.960Z,36.73
2018-10-17T18:33:05.605Z,36.08
2018-10-17T18:35:34.573Z,34.98
2018-10-17T18:38:04.430Z,36.68
2018-10-17T18:40:35.241Z,36.23
2018-10-17T18:43:04.059Z,36.58
2018-10-17T18:45:32.101Z,35.90
2018-10-17T18:47:59.888Z,34.58
2018-10-17T18:50:27.978Z,36.50
2018-10-17T18:52:55.871Z,38.15
2018-10-17T18:55:23.327Z,38.10
2018-10-17T18:57:50.966Z,38.58
2018-10-17T19:00:18.748Z,36.25
2018-10-17T19:02:47.334Z,39.67
2018-10-17T19:05:15.208Z,37.83
2018-10-17T19:07:42.777Z,39.55
2018-10-17T19:10:10.532Z,38.58
2018-10-17T19:12:39.020Z,37.08
2018-10-17T19:15:06.864Z,36.90
2018-10-17T19:17:34.650Z,39.90
2018-10-17T19:20:02.551Z,36.93
2018-10-17T19:22:30.576Z,38.48
2018-10-17T19:24:59.325Z,39.18
2018-10-17T19:27:26.973Z,38.15
2018-10-17T19:29:54.515Z,37.25
2018-10-17T19:32:22.385Z,37.40
2018-10-17T19:34:49.818Z,38.25
2018-10-17T19:37:17.211Z,39.70
2018-10-17T19:39:44.904Z,39.92
2018-10-17T19:42:43.710Z,41.30
2018-10-17T19:45:12.341Z,37.80
2018-10-17T19:47:40.859Z,39.27
2018-10-17T19:50:10.883Z,38.83
2018-10-17T19:52:39.718Z,40.15
2018-10-17T19:55:10.765Z,40.90
2018-10-17T19:57:40.143Z,40.03
2018-10-17T20:00:10.130Z,39.35
2018-10-17T20:02:38.193Z,37.80
2018-10-17T20:08:20.549Z,39.00
2018-10-17T20:11:15.185Z,40.85
2018-10-17T20:17:16.537Z,41.85
2018-10-17T20:19:59.056Z,40.63
2018-10-17T20:22:28.351Z,39.33
2018-10-17T20:24:56.530Z,41.33
2018-10-17T20:27:24.181Z,41.98
2018-10-17T20:29:52.044Z,38.67
2018-10-17T20:32:20.486Z,40.98
2018-10-17T20:34:52.934Z,42.13
2018-10-17T20:37:20.774Z,41.80
2018-10-17T20:39:48.842Z,40.95
2018-10-17T20:42:19.267Z,43.98
2018-10-17T20:44:46.720Z,40.92
2018-10-17T20:47:14.271Z,42.67
2018-10-17T20:49:42.006Z,43.30
2018-10-17T20:52:09.491Z,43.98
2018-10-17T20:54:36.871Z,45.98
2018-10-17T20:57:04.634Z,41.20
2018-10-17T20:59:32.787Z,42.50
2018-10-17T21:02:00.461Z,44.63
2018-10-17T21:04:28.522Z,43.00
2018-10-17T21:07:02.135Z,43.10
2018-10-17T21:09:35.850Z,41.02
2018-10-17T21:12:09.419Z,42.23
2018-10-17T21:14:44.119Z,42.78
2018-10-17T21:17:17.640Z,42.27
2018-10-17T21:19:51.455Z,42.45
2018-10-17T21:22:26.218Z,42.93
2018-10-17T21:24:59.991Z,41.68
2018-10-17T21:27:33.933Z,40.50
2018-10-17T21:30:09.908Z,40.05
2018-10-17T21:32:43.412Z,39.83
2018-10-17T21:35:16.978Z,40.33
2018-10-17T21:37:51.083Z,41.37
2018-10-17T21:40:24.760Z,39.80
2018-10-17T21:42:58.395Z,42.58
2018-10-17T21:45:31.863Z,40.40
2018-10-17T21:48:05.594Z,39.40
2018-10-17T21:50:51.619Z,40.25
2018-10-17T21:56:23.366Z,38.67
2018-10-17T21:59:04.001Z,37.17
2018-10-17T22:01:39.388Z,39.03
2018-10-17T22:04:14.205Z,38.45
2018-10-17T22:06:48.531Z,40.30
2018-10-17T22:09:22.368Z,36.75
2018-10-17T22:11:56.516Z,37.95
2018-10-17T22:14:32.061Z,34.58
2018-10-17T22:17:07.196Z,35.50
2018-10-17T22:19:41.973Z,34.48
2018-10-17T22:22:16.868Z,36.55
2018-10-17T22:24:50.763Z,35.17
2018-10-17T22:27:24.469Z,33.73
2018-10-17T22:29:58.252Z,35.25
2018-10-17T22:32:32.072Z,32.45
2018-10-17T22:35:05.872Z,33.83
2018-10-17T22:37:39.679Z,34.48
2018-10-17T22:40:15.670Z,30.60
2018-10-17T22:42:49.373Z,32.05
2018-10-17T22:45:22.961Z,30.25
2018-10-17T22:47:56.572Z,30.27
2018-10-17T22:50:30.110Z,31.45
2018-10-17T22:53:04.192Z,30.20
2018-10-17T22:55:37.930Z,28.57
2018-10-17T22:58:11.523Z,29.42
2018-10-17T23:00:44.951Z,28.23
2018-10-17T23:03:19.084Z,27.82
2018-10-17T23:05:52.595Z,27.15
2018-10-17T23:08:26.272Z,29.27
2018-10-17T23:10:59.803Z,27.70
2018-10-17T23:13:33.607Z,27.55
2018-10-17T23:16:07.213Z,27.87
2018-10-17T23:18:40.983Z,27.87
2018-10-17T23:21:14.700Z,29.60
2018-10-17T23:23:48.414Z,30.02
2018-10-17T23:26:21.991Z,26.65
2018-10-17T23:28:56.265Z,27.07
2018-10-17T23:31:29.793Z,26.15
2018-10-17T23:34:03.506Z,25.05
2018-10-17T23:36:37.215Z,28.35
2018-10-17T23:39:10.897Z,29.98
2018-10-17T23:41:44.578Z,30.62
2018-10-17T23:44:18.164Z,28.67
2018-10-17T23:46:51.724Z,27.70
2018-10-17T23:49:25.266Z,25.05
2018-10-17T23:51:58.967Z,26.55
2018-10-17T23:54:32.807Z,26.93
2018-10-17T23:57:06.479Z,27.48
2018-10-17T23:59:40.213Z,27.93
